Time;durP1;ratioP1;P1;durP2;ratioP2;P2;SDS_P1;SDS_P2;PMS_P1;PMS_P2;Temp;Humidity;BMP_temperature;BMP_pressure;BME280_temperature;BME280_humidity;BME280_pressure;Samples;Min_cycle;Max_cycle;Signal;HPM_P1;HPM_P2
2022/01/24 00:02:49;;;;;;;1.67;0.17;;;;;;;6.93;61.30;101989.06;10482569;28;20086;-61
2022/01/24 00:07:51;;;;;;;0.50;0.25;;;;;;;6.82;61.42;101960.34;10457474;28;20052;-60
2022/01/24 00:14:10;;;;;;;0.98;0.68;;;;;;;6.84;61.89;101961.16;10459949;28;20059;-60
2022/01/24 00:26:42;;;;;;;0.60;0.43;;;;;;;6.99;61.52;101968.50;10459627;28;20473;-60
2022/01/24 00:29:23;;;;;;;1.98;0.32;;;;;;;6.89;61.58;101965.34;10476102;28;20054;-61
2022/01/24 00:34:25;;;;;;;1.23;0.30;;;;;;;6.97;61.52;101962.41;10466759;28;20243;-60
2022/01/24 00:39:27;;;;;;;0.85;0.30;;;;;;;7.01;61.65;101969.31;10455506;28;20102;-61
2022/01/24 00:44:50;;;;;;;0.75;0.30;;;;;;;7.04;61.73;101966.56;10466234;28;20379;-61
2022/01/24 00:55:25;;;;;;;0.52;0.40;;;;;;;7.03;61.22;101964.81;10423481;28;20040;-61
2022/01/24 01:00:27;;;;;;;0.63;0.52;;;;;;;7.03;61.28;101970.13;10485090;28;20364;-62
2022/01/24 01:21:26;;;;;;;0.80;0.52;;;;;;;7.08;61.15;101978.75;10482405;28;20044;-62
2022/01/24 01:52:48;;;;;;;0.75;0.20;;;;;;;7.07;61.40;101968.19;10477580;28;20039;-61
2022/01/24 01:57:49;;;;;;;0.73;0.40;;;;;;;7.03;61.81;101964.81;10470096;28;20053;-61
2022/01/24 02:02:50;;;;;;;0.68;0.28;;;;;;;7.01;61.97;101956.09;10472437;28;20455;-62
2022/01/24 02:07:53;;;;;;;0.45;0.30;;;;;;;7.10;61.77;101964.59;10451348;28;20040;-62
2022/01/24 02:12:56;;;;;;;0.30;0.10;;;;;;;7.11;61.87;101974.28;10475486;28;20234;-61
2022/01/24 02:18:12;;;;;;;0.50;0.25;;;;;;;6.95;61.72;101966.91;10444089;28;20451;-61
2022/01/24 02:28:27;;;;;;;1.20;0.35;;;;;;;6.81;61.90;101937.44;10469660;28;20114;-61
2022/01/24 02:33:29;;;;;;;0.65;0.65;;;;;;;6.94;61.89;101959.03;10466671;28;20130;-62
2022/01/24 02:49:02;;;;;;;0.45;0.25;;;;;;;6.92;62.28;101951.16;10470041;28;20046;-62
2022/01/24 02:54:05;;;;;;;0.20;0.20;;;;;;;6.93;62.27;101957.31;10467131;28;20135;-62
2022/01/24 02:59:06;;;;;;;1.58;0.38;;;;;;;6.93;62.32;101954.66;10461478;28;20414;-61
2022/01/24 03:04:08;;;;;;;1.63;0.35;;;;;;;6.70;62.19;101920.19;10478648;28;20059;-62
2022/01/24 03:09:11;;;;;;;0.20;0.20;;;;;;;6.99;62.35;101941.16;10487728;28;20134;-62
2022/01/24 03:14:12;;;;;;;1.67;0.30;;;;;;;6.90;62.20;101932.69;10481162;28;20123;-61
2022/01/24 03:19:14;;;;;;;0.70;0.40;;;;;;;6.89;62.50;101927.41;10483737;28;20135;-61
2022/01/24 03:24:15;;;;;;;0.77;0.57;;;;;;;6.89;62.64;101924.75;10487143;28;20485;-61
2022/01/24 03:29:17;;;;;;;0.57;0.38;;;;;;;6.81;62.20;101908.31;10495523;28;20648;-61
2022/01/24 03:34:18;;;;;;;0.80;0.30;;;;;;;6.92;62.57;101918.50;10475403;28;20123;-62
2022/01/24 03:39:20;;;;;;;0.60;0.30;;;;;;;6.95;62.77;101910.44;10483362;28;20048;-61
2022/01/24 03:44:23;;;;;;;0.60;0.25;;;;;;;7.02;62.22;101904.84;10484398;28;20050;-61
2022/01/24 03:54:48;;;;;;;0.77;0.20;;;;;;;7.01;62.24;101907.53;10485712;28;20298;-62
2022/01/24 03:59:50;;;;;;;0.43;0.30;;;;;;;6.99;61.89;101899.66;10476699;28;20135;-62
2022/01/24 04:04:51;;;;;;;0.60;0.30;;;;;;;7.04;61.91;101903.00;10484858;28;20052;-61
2022/01/24 04:09:53;;;;;;;1.38;0.30;;;;;;;6.94;61.96;101906.09;10480280;28;20072;-61
2022/01/24 04:15:08;;;;;;;1.38;0.30;;;;;;;6.96;62.14;101898.94;10475898;28;20137;-61
2022/01/24 04:25:30;;;;;;;1.25;0.40;;;;;;;6.93;62.39;101907.84;10467692;28;20054;-61
2022/01/24 04:30:31;;;;;;;0.60;0.20;;;;;;;6.76;61.95;101881.19;10473291;28;20048;-61
2022/01/24 04:35:33;;;;;;;1.20;0.30;;;;;;;6.86;62.40;101893.13;10476333;28;20052;-61
2022/01/24 04:40:34;;;;;;;0.20;0.10;;;;;;;6.75;62.18;101869.72;10479810;28;20056;-61
2022/01/24 04:45:59;;;;;;;0.80;0.30;;;;;;;6.84;62.12;101887.88;10470031;28;20054;-61
2022/01/24 04:51:05;;;;;;;0.43;0.30;;;;;;;6.80;61.64;101880.13;10470834;28;20118;-61
2022/01/24 04:56:07;;;;;;;1.60;0.30;;;;;;;6.76;61.87;101882.03;10469246;28;20123;-62
2022/01/24 05:01:08;;;;;;;1.25;0.20;;;;;;;6.64;62.17;101880.72;10482987;28;20149;-62
2022/01/24 05:06:10;;;;;;;1.00;0.40;;;;;;;6.67;62.28;101877.09;10472482;28;20122;-62
2022/01/24 05:11:16;;;;;;;0.50;0.40;;;;;;;6.71;62.10;101883.97;10472809;28;21832;-61
2022/01/24 05:23:27;;;;;;;0.65;0.38;;;;;;;6.63;61.82;101867.56;10463945;28;20127;-61
2022/01/24 05:27:14;;;;;;;1.25;0.50;;;;;;;6.81;62.07;101879.22;10472564;28;20136;-62
2022/01/24 05:32:15;;;;;;;0.60;0.40;;;;;;;6.81;61.91;101884.50;10482255;28;20500;-62
2022/01/24 05:37:17;;;;;;;1.15;0.50;;;;;;;6.77;61.79;101888.19;10480911;28;20051;-63
2022/01/24 05:42:21;;;;;;;0.80;0.50;;;;;;;6.63;61.63;101879.00;10473152;28;20091;-60
2022/01/24 05:47:22;;;;;;;0.67;0.47;;;;;;;6.65;62.09;101900.09;10471955;28;20047;-61
2022/01/24 05:52:24;;;;;;;0.60;0.43;;;;;;;6.72;62.24;101902.47;10469013;28;20301;-62
2022/01/24 05:57:29;;;;;;;0.80;0.45;;;;;;;6.68;62.20;101895.56;10431268;28;20467;-62
2022/01/24 06:02:30;;;;;;;1.55;0.50;;;;;;;6.79;61.87;101903.09;10447883;28;20064;-61
2022/01/24 06:07:32;;;;;;;1.08;0.50;;;;;;;6.74;61.45;101907.72;10442757;28;20194;-62
2022/01/24 06:12:34;;;;;;;0.60;0.40;;;;;;;6.81;61.88;101910.97;10448943;28;20052;-62
2022/01/24 06:17:35;;;;;;;0.85;0.47;;;;;;;6.64;62.08;101899.25;10448612;28;20052;-62
2022/01/24 06:22:38;;;;;;;0.95;0.50;;;;;;;6.68;62.12;101914.09;10446159;28;20052;-62
2022/01/24 06:27:39;;;;;;;0.60;0.38;;;;;;;6.69;61.65;101907.84;10449098;28;20068;-61
2022/01/24 06:32:41;;;;;;;0.70;0.40;;;;;;;6.75;61.66;101924.44;10448272;28;20131;-60
2022/01/24 06:37:42;;;;;;;2.22;0.40;;;;;;;6.65;61.40;101914.22;10448907;28;20418;-60
2022/01/24 06:42:44;;;;;;;1.45;0.75;;;;;;;6.77;61.77;101947.28;10450048;28;20070;-60
2022/01/24 06:47:45;;;;;;;1.85;0.80;;;;;;;6.61;62.42;101941.69;10451863;28;20141;-61
2022/01/24 06:52:48;;;;;;;1.10;0.77;;;;;;;6.75;62.61;101938.53;10456098;28;20542;-60
2022/01/24 06:57:49;;;;;;;1.30;0.60;;;;;;;6.77;62.43;101943.75;10421263;28;20052;-60
2022/01/24 07:02:50;;;;;;;3.00;0.70;;;;;;;6.83;62.42;101940.88;10445255;28;20044;-62
2022/01/24 07:07:56;;;;;;;2.03;1.30;;;;;;;6.86;62.10;101946.94;10448055;28;21388;-61
2022/01/24 07:12:58;;;;;;;1.98;1.15;;;;;;;6.79;62.19;101949.88;10442955;28;20581;-60
2022/01/24 07:23:03;;;;;;;1.17;0.95;;;;;;;6.78;62.44;101953.44;10437931;28;20129;-58
2022/01/24 07:28:04;;;;;;;1.02;0.75;;;;;;;6.78;61.99;101951.66;10447569;28;20773;-60
2022/01/24 07:33:06;;;;;;;2.78;0.93;;;;;;;6.80;61.98;101955.13;10445300;28;20392;-60
2022/01/24 07:38:08;;;;;;;0.90;0.60;;;;;;;6.79;61.56;101947.25;10448913;28;20152;-59
2022/01/24 07:43:12;;;;;;;2.53;0.77;;;;;;;6.67;61.58;101945.91;10445874;28;20748;-59
2022/01/24 07:48:15;;;;;;;1.30;0.77;;;;;;;6.77;61.57;101936.72;10436630;28;20044;-59
2022/01/24 07:53:17;;;;;;;2.15;0.60;;;;;;;6.80;61.50;101941.00;10453559;28;20052;-60
2022/01/24 07:58:41;;;;;;;2.88;0.80;;;;;;;6.84;61.26;101946.13;10454289;28;20056;-60
2022/01/24 08:03:43;;;;;;;1.50;0.45;;;;;;;6.60;61.46;101939.97;10452227;28;20052;-60
2022/01/24 08:08:44;;;;;;;1.00;0.57;;;;;;;6.56;61.02;101946.31;10435665;28;20194;-60
2022/01/24 08:13:46;;;;;;;1.70;0.50;;;;;;;6.66;61.28;101952.97;10454810;28;20383;-60
2022/01/24 08:18:51;;;;;;;1.10;0.70;;;;;;;6.76;61.00;101950.00;10452160;28;20056;-59
2022/01/24 08:23:53;;;;;;;1.00;0.55;;;;;;;6.74;60.79;101944.78;10451253;28;20158;-60
2022/01/24 08:28:54;;;;;;;1.10;0.45;;;;;;;6.75;60.74;101959.72;10449166;28;20124;-60
2022/01/24 08:33:56;;;;;;;2.75;0.95;;;;;;;6.69;61.18;101968.72;10453369;28;20049;-59
2022/01/24 08:39:05;;;;;;;3.13;0.80;;;;;;;6.59;61.16;101951.50;10452074;28;20044;-60
2022/01/24 08:49:27;;;;;;;6.72;1.17;;;;;;;6.79;60.81;101971.06;10458054;28;20040;-61
2022/01/24 08:54:29;;;;;;;1.77;0.80;;;;;;;6.55;60.96;101941.94;10469815;28;20117;-58
2022/01/24 08:59:32;;;;;;;1.52;0.50;;;;;;;6.78;61.21;101983.41;10449493;28;20187;-61
2022/01/24 09:04:34;;;;;;;0.70;0.57;;;;;;;6.70;61.51;101989.00;10448616;28;20433;-59
2022/01/24 09:09:35;;;;;;;3.08;1.67;;;;;;;6.81;61.23;101995.69;10447857;28;20056;-59
2022/01/24 09:14:43;;;;;;;3.03;1.50;;;;;;;6.90;61.10;101990.03;10447850;28;20109;-58
2022/01/24 09:19:44;;;;;;;1.27;0.75;;;;;;;6.76;60.84;101976.47;10450141;28;20143;-60
2022/01/24 09:25:09;;;;;;;3.22;1.38;;;;;;;6.72;60.95;101981.88;10443032;28;20318;-59
2022/01/24 09:30:14;;;;;;;4.13;1.23;;;;;;;6.66;61.05;101971.50;10421721;28;20048;-59
2022/01/24 09:35:16;;;;;;;1.83;1.33;;;;;;;6.85;61.07;101976.13;10447446;28;20053;-59
2022/01/24 09:40:17;;;;;;;5.55;1.60;;;;;;;6.85;61.25;101981.41;10447598;28;20557;-60
2022/01/24 09:45:19;;;;;;;3.72;1.92;;;;;;;6.82;60.94;101978.88;10444384;28;20052;-58
2022/01/24 09:50:21;;;;;;;1.83;1.60;;;;;;;6.80;60.97;101978.06;10445932;28;20056;-59
2022/01/24 09:55:24;;;;;;;5.60;1.55;;;;;;;6.87;60.41;101979.56;10446654;28;20135;-60
2022/01/24 10:00:27;;;;;;;3.25;2.30;;;;;;;6.85;60.85;101976.13;10447355;28;20223;-61
2022/01/24 10:05:35;;;;;;;3.70;1.65;;;;;;;6.80;60.83;101971.00;10445561;28;20503;-60
2022/01/24 10:11:01;;;;;;;2.20;1.98;;;;;;;6.91;60.20;101970.59;10443910;28;20063;-60
2022/01/24 10:21:28;;;;;;;3.55;2.13;;;;;;;6.86;60.00;101965.47;10445801;28;20072;-60
2022/01/24 10:26:29;;;;;;;3.72;2.25;;;;;;;6.98;60.08;101961.50;10450302;28;20056;-60
2022/01/24 10:31:31;;;;;;;3.97;2.42;;;;;;;7.07;59.57;101976.16;10451037;28;20574;-61
2022/01/24 10:36:35;;;;;;;3.03;2.65;;;;;;;6.99;60.40;101970.31;10443564;28;20056;-60
2022/01/24 10:41:55;;;;;;;3.85;2.47;;;;;;;7.07;59.78;101966.44;10440290;28;20139;-59
2022/01/24 10:47:26;;;;;;;2.78;2.53;;;;;;;7.05;59.99;101962.97;10449390;28;20040;-58
2022/01/24 10:52:31;;;;;;;4.47;2.58;;;;;;;7.10;59.87;101964.59;10448802;28;20748;-60
2022/01/24 10:57:32;;;;;;;4.30;3.17;;;;;;;7.20;60.01;101976.56;10451636;28;20067;-59
2022/01/24 11:02:41;;;;;;;3.05;2.60;;;;;;;7.21;59.73;101959.75;10450712;28;20061;-59
2022/01/24 11:07:51;;;;;;;3.08;2.78;;;;;;;7.34;59.05;101945.09;10450014;28;20036;-59
2022/01/24 11:12:53;;;;;;;2.75;2.55;;;;;;;7.39;59.44;101935.16;10447143;28;20190;-60
2022/01/24 11:17:55;;;;;;;4.03;3.08;;;;;;;7.37;59.12;101931.72;10445738;28;20086;-59
2022/01/24 11:23:01;;;;;;;5.55;2.97;;;;;;;7.40;59.06;101951.91;10446307;28;20182;-59
2022/01/24 11:28:04;;;;;;;9.63;6.30;;;;;;;7.36;59.31;101942.38;10455039;28;20060;-59
2022/01/24 11:33:12;;;;;;;2.40;2.20;;;;;;;7.35;59.36;101943.31;10454682;28;20064;-60
2022/01/24 11:38:35;;;;;;;2.95;2.17;;;;;;;7.42;58.98;101932.41;10453745;28;20037;-57
2022/01/24 11:43:40;;;;;;;2.03;1.92;;;;;;;7.48;58.64;101926.00;10450232;28;20072;-59
2022/01/24 11:48:42;;;;;;;4.15;1.88;;;;;;;7.49;59.09;101932.13;10433324;28;20052;-58
2022/01/24 11:53:46;;;;;;;2.90;2.13;;;;;;;7.34;59.17;101904.47;10428651;28;20208;-60
2022/01/24 11:58:49;;;;;;;;;;;;;;;7.56;58.86;101915.06;10433019;28;20459;-64
2022/01/24 12:03:52;;;;;;;2.13;1.92;;;;;;;7.47;58.81;101916.31;10454641;28;20019;-59
2022/01/24 12:09:06;;;;;;;3.13;2.00;;;;;;;7.26;59.93;101896.84;10451424;28;20056;-60
2022/01/24 12:14:23;;;;;;;2.55;2.13;;;;;;;7.34;59.88;101904.47;10450217;28;20109;-57
2022/01/24 12:19:31;;;;;;;2.42;2.00;;;;;;;7.41;59.30;101901.50;10451523;28;20055;-59
2022/01/24 12:24:44;;;;;;;1.83;1.73;;;;;;;7.52;59.16;101897.56;10423213;28;20148;-58
2022/01/24 12:29:46;;;;;;;2.80;1.98;;;;;;;7.48;59.14;101901.28;10451749;28;20052;-60
2022/01/24 12:34:47;;;;;;;3.92;2.33;;;;;;;7.27;59.41;101882.69;10453018;28;20198;-60
2022/01/24 12:39:57;;;;;;;5.20;2.22;;;;;;;7.42;59.16;101894.44;10451437;28;20452;-59
2022/01/24 12:50:30;;;;;;;2.55;2.35;;;;;;;7.37;59.35;101873.44;10446093;28;20503;-60
2022/01/24 12:55:32;;;;;;;2.35;2.15;;;;;;;7.57;59.46;101882.34;10449526;28;20078;-59
2022/01/24 13:00:33;;;;;;;2.70;2.15;;;;;;;7.53;58.76;101878.09;10429645;28;20057;-59
2022/01/24 13:05:38;;;;;;;2.35;2.15;;;;;;;7.56;59.35;101878.81;10447692;28;20053;-59
2022/01/24 13:10:40;;;;;;;3.20;2.20;;;;;;;7.60;59.20;101883.06;10447200;28;20126;-59
2022/01/24 13:26:12;;;;;;;4.03;2.17;;;;;;;7.48;59.81;101859.75;10451986;28;20190;-60
2022/01/24 13:31:14;;;;;;;2.53;1.92;;;;;;;7.46;59.80;101858.97;10432500;28;20135;-60
2022/01/24 13:36:16;;;;;;;3.88;2.90;;;;;;;7.56;59.64;101854.97;10447320;28;20056;-61
2022/01/24 13:41:23;;;;;;;2.42;1.88;;;;;;;7.57;59.78;101864.66;10441740;28;20533;-60
2022/01/24 13:46:30;;;;;;;3.47;2.72;;;;;;;7.42;59.73;101850.25;10446044;28;20062;-59
2022/01/24 13:51:40;;;;;;;3.40;2.40;;;;;;;7.47;60.12;101858.00;10446727;28;20052;-59
2022/01/24 13:56:43;;;;;;;2.55;2.08;;;;;;;7.34;60.21;101862.09;10445833;28;20044;-62
2022/01/24 14:02:03;;;;;;;2.65;2.10;;;;;;;7.35;60.22;101856.72;10446089;28;20118;-60
2022/01/24 14:07:15;;;;;;;2.92;2.00;;;;;;;7.33;60.22;101850.66;10448821;28;20777;-59
2022/01/24 14:12:21;;;;;;;2.40;2.20;;;;;;;7.36;60.84;101858.47;10430773;28;20138;-60
2022/01/24 14:22:39;;;;;;;3.17;2.40;;;;;;;7.44;60.66;101848.38;10447424;28;20133;-59
2022/01/24 14:27:42;;;;;;;3.20;2.33;;;;;;;7.45;60.45;101854.56;10451060;28;20049;-59
2022/01/24 14:33:31;;;;;;;3.47;2.95;;;;;;;7.49;60.16;101848.22;10422498;28;21003;-59
2022/01/24 14:38:36;;;;;;;3.17;2.90;;;;;;;7.52;60.69;101849.88;10428441;28;20048;-59
2022/01/24 14:49:04;;;;;;;5.18;3.40;;;;;;;7.57;60.59;101847.91;10452757;28;20053;-59
2022/01/24 14:54:17;;;;;;;3.15;2.85;;;;;;;7.56;60.86;101856.75;10455950;28;20698;-60
2022/01/24 14:59:20;;;;;;;3.97;3.50;;;;;;;7.48;60.75;101832.41;10435262;28;20053;-59
2022/01/24 15:04:22;;;;;;;5.72;3.35;;;;;;;7.45;60.34;101812.19;10448787;28;20661;-59
2022/01/24 15:09:27;;;;;;;3.72;3.42;;;;;;;7.37;60.60;101828.41;10445471;28;20049;-59
2022/01/24 15:14:40;;;;;;;4.25;3.55;;;;;;;7.38;61.15;101838.06;10443370;28;20056;-62
2022/01/24 15:30:18;;;;;;;3.97;3.42;;;;;;;7.37;61.31;101854.91;10447354;28;20514;-59
2022/01/24 15:35:31;;;;;;;5.07;3.13;;;;;;;7.23;61.67;101839.56;10447895;28;20087;-59
2022/01/24 15:40:35;;;;;;;5.57;3.10;;;;;;;7.36;61.22;101839.91;10444926;28;20091;-59
2022/01/24 15:50:39;;;;;;;5.88;4.57;;;;;;;7.29;61.35;101837.59;10443519;28;20053;-59
2022/01/24 15:56:01;;;;;;;4.30;3.90;;;;;;;7.26;61.80;101849.16;10448362;28;20132;-59
2022/01/24 16:01:03;;;;;;;3.80;3.33;;;;;;;7.22;61.98;101831.66;10444236;28;20055;-60
2022/01/24 16:06:05;;;;;;;4.63;3.85;;;;;;;7.19;61.62;101837.09;10444183;28;20057;-59
2022/01/24 16:11:06;;;;;;;4.30;3.85;;;;;;;7.14;62.29;101849.69;10448957;28;20064;-59
2022/01/24 16:16:09;;;;;;;6.03;4.60;;;;;;;7.16;62.33;101850.47;10450167;28;20186;-59
2022/01/24 16:26:24;;;;;;;6.28;5.22;;;;;;;7.19;62.13;101845.03;10452132;28;20210;-61
2022/01/24 16:31:25;;;;;;;6.85;5.78;;;;;;;7.14;62.51;101842.59;10451056;28;20131;-60
2022/01/24 16:36:26;;;;;;;8.52;5.47;;;;;;;7.08;62.84;101853.44;10439427;28;20344;-58
2022/01/24 16:41:38;;;;;;;6.78;5.10;;;;;;;7.06;62.91;101847.34;10434987;28;20572;-61
2022/01/24 16:52:00;;;;;;;4.95;4.55;;;;;;;7.05;62.93;101840.31;10450104;28;20083;-61
2022/01/24 16:57:03;;;;;;;4.95;4.55;;;;;;;6.97;62.54;101834.47;10453158;28;20055;-61
2022/01/24 17:02:06;;;;;;;6.00;4.68;;;;;;;7.16;62.81;101845.16;10447849;28;20439;-61
2022/01/24 17:07:08;;;;;;;6.40;5.80;;;;;;;7.09;62.48;101847.22;10453989;28;20574;-61
2022/01/24 17:12:10;;;;;;;6.30;5.70;;;;;;;6.97;62.79;101848.56;10433154;28;20575;-61
2022/01/24 17:17:11;;;;;;;5.75;5.18;;;;;;;6.98;63.00;101867.94;10447080;28;20056;-61
2022/01/24 17:22:13;;;;;;;6.53;6.03;;;;;;;6.96;63.11;101845.97;10444333;28;20049;-61
2022/01/24 17:27:16;;;;;;;7.00;6.38;;;;;;;7.03;63.14;101850.13;10440623;22;20105;-61
2022/01/24 17:32:18;;;;;;;6.40;5.80;;;;;;;7.08;63.03;101848.97;10447794;27;20075;-62
2022/01/24 17:37:20;;;;;;;6.55;5.95;;;;;;;7.10;63.44;101853.38;10467248;28;20048;-63
2022/01/24 17:42:21;;;;;;;7.32;6.68;;;;;;;7.04;63.31;101854.47;10480455;28;20696;-62
2022/01/24 17:47:23;;;;;;;8.32;7.53;;;;;;;7.01;63.63;101844.88;10485857;28;20606;-62
2022/01/24 17:52:24;;;;;;;7.90;7.10;;;;;;;6.92;63.34;101850.56;10485596;28;20159;-62
2022/01/24 17:57:26;;;;;;;7.78;6.88;;;;;;;6.90;63.94;101847.09;10476805;28;20452;-62
2022/01/24 18:02:27;;;;;;;8.32;6.75;;;;;;;6.99;63.64;101849.34;10482585;27;20706;-63
2022/01/24 18:07:29;;;;;;;7.63;6.93;;;;;;;7.00;63.64;101853.75;10482123;27;20055;-62
2022/01/24 18:12:31;;;;;;;8.63;7.43;;;;;;;6.97;63.39;101853.88;10485836;27;20098;-62
2022/01/24 18:17:33;;;;;;;7.65;6.97;;;;;;;6.84;63.76;101857.91;10482464;28;20039;-63
2022/01/24 18:22:35;;;;;;;7.45;6.72;;;;;;;6.96;63.65;101852.13;10520748;27;20048;-62
2022/01/24 18:27:42;;;;;;;7.03;6.43;;;;;;;6.94;63.41;101847.84;10483456;28;21029;-62
2022/01/24 18:32:44;;;;;;;7.43;6.72;;;;;;;6.97;63.57;101859.16;10476461;28;20447;-62
2022/01/24 18:37:48;;;;;;;8.25;7.45;;;;;;;6.95;63.55;101861.00;10486265;28;20051;-63
2022/01/24 18:42:53;;;;;;;7.70;6.90;;;;;;;6.99;63.43;101865.25;10477172;28;20204;-62
2022/01/24 18:47:56;;;;;;;7.55;6.43;;;;;;;6.94;63.43;101861.06;10477161;27;20111;-62
2022/01/24 18:52:59;;;;;;;7.00;6.40;;;;;;;6.72;64.25;101865.44;10475209;27;20091;-62
2022/01/24 18:58:01;;;;;;;11.32;8.82;;;;;;;6.65;64.55;101879.81;10472450;28;20891;-62
2022/01/24 19:03:03;;;;;;;8.57;7.38;;;;;;;6.79;64.62;101881.06;10485147;28;20091;-63
2022/01/24 19:08:10;;;;;;;8.93;8.10;;;;;;;6.86;64.51;101877.22;10512502;28;20366;-63
2022/01/24 19:13:15;;;;;;;9.32;8.43;;;;;;;6.82;63.93;101862.41;10490790;28;21458;-62
2022/01/24 19:18:25;;;;;;;9.52;6.88;;;;;;;6.85;64.12;101871.09;10476137;28;20169;-63
2022/01/24 19:23:28;;;;;;;9.30;8.00;;;;;;;6.75;64.15;101871.50;10480805;28;20048;-63
2022/01/24 19:28:32;;;;;;;8.70;6.90;;;;;;;6.75;64.27;101874.16;10479346;28;20540;-63
2022/01/24 19:33:35;;;;;;;8.13;7.33;;;;;;;6.69;64.47;101881.41;10489545;28;20127;-63
2022/01/24 19:38:37;;;;;;;9.27;8.30;;;;;;;6.76;63.84;101881.19;10477771;28;20056;-63
2022/01/24 19:43:39;;;;;;;7.95;7.15;;;;;;;6.77;64.07;101888.19;10488672;28;20531;-69
2022/01/24 19:48:41;;;;;;;7.95;7.15;;;;;;;6.73;64.39;101883.00;10484987;27;21731;-63
2022/01/24 19:53:44;;;;;;;9.98;8.63;;;;;;;6.73;64.40;101883.00;10485988;28;20056;-62
2022/01/24 19:58:52;;;;;;;9.65;8.75;;;;;;;6.81;63.91;101887.16;10488984;28;20075;-63
2022/01/24 20:03:57;;;;;;;10.38;9.27;;;;;;;6.72;64.53;101885.72;10480933;28;20188;-64
2022/01/24 20:08:59;;;;;;;8.82;7.72;;;;;;;6.69;64.51;101886.69;10473998;28;20048;-62
2022/01/24 20:14:00;;;;;;;9.90;8.90;;;;;;;6.73;64.23;101887.44;10483995;27;21343;-62
2022/01/24 20:19:03;;;;;;;10.07;8.98;;;;;;;6.70;64.68;101883.13;10476744;28;20121;-63
2022/01/24 20:24:05;;;;;;;9.73;8.70;;;;;;;6.65;64.54;101885.09;10501759;28;20157;-63
2022/01/24 20:29:07;;;;;;;10.63;9.63;;;;;;;6.59;64.55;101895.94;10517930;28;20040;-63
2022/01/24 20:34:08;;;;;;;9.20;8.30;;;;;;;6.67;64.48;101893.84;10482075;28;20553;-64
2022/01/24 20:39:10;;;;;;;9.90;8.52;;;;;;;6.62;64.29;101895.81;10479365;27;20100;-62
2022/01/24 20:44:12;;;;;;;12.43;10.30;;;;;;;6.52;64.74;101894.41;10470934;27;20131;-62
2022/01/24 20:49:14;;;;;;;10.63;9.52;;;;;;;6.56;64.52;101890.75;10482043;27;20052;-63
2022/01/24 20:54:16;;;;;;;11.55;10.35;;;;;;;6.59;64.56;101895.03;10485439;28;20048;-63
2022/01/24 20:59:17;;;;;;;11.15;10.13;;;;;;;6.51;64.67;101888.25;10485435;27;20133;-62
2022/01/24 21:04:19;;;;;;;10.25;9.32;;;;;;;6.41;64.83;101888.66;10485042;27;20109;-62
2022/01/24 21:09:20;;;;;;;10.65;9.63;;;;;;;6.35;65.55;101892.38;10476899;27;20143;-63
2022/01/24 21:14:22;;;;;;;9.98;8.98;;;;;;;6.44;65.27;101893.81;10480084;27;20736;-62
2022/01/24 21:25:22;;;;;;;10.90;9.18;;;;;;;6.28;65.42;101894.41;10365644;28;20497;-64
2022/01/24 21:30:24;;;;;;;10.93;9.82;;;;;;;6.27;65.29;101890.00;10387139;28;20491;-64
2022/01/24 21:35:27;;;;;;;10.50;9.50;;;;;;;6.14;65.58;101894.91;10411310;28;20758;-63
2022/01/24 21:40:33;;;;;;;12.15;8.70;;;;;;;6.18;65.80;101901.81;10407868;28;20697;-64
2022/01/24 21:45:40;;;;;;;10.20;9.20;;;;;;;6.19;65.89;101902.66;10410743;28;20532;-63
2022/01/24 21:50:42;;;;;;;9.30;6.95;;;;;;;6.09;65.75;101901.25;10412696;28;20127;-64
2022/01/24 21:55:43;;;;;;;9.20;8.38;;;;;;;6.06;65.92;101896.94;10412864;28;20387;-63
2022/01/24 22:00:45;;;;;;;10.65;8.25;;;;;;;5.97;65.86;101897.25;10409649;28;20137;-63
2022/01/24 22:05:47;;;;;;;10.27;8.50;;;;;;;5.92;66.18;101888.63;10426749;28;20103;-63
2022/01/24 22:10:49;;;;;;;8.75;7.93;;;;;;;5.97;65.88;101889.34;10408354;28;20126;-63
2022/01/24 22:15:50;;;;;;;12.60;8.93;;;;;;;6.00;66.13;101890.09;10408001;28;20090;-63
2022/01/24 22:20:52;;;;;;;9.52;8.57;;;;;;;5.97;66.01;101887.53;10408103;28;20102;-63
2022/01/24 22:25:55;;;;;;;10.40;9.30;;;;;;;5.93;66.39;101880.63;10406904;28;20061;-63
2022/01/24 22:30:57;;;;;;;12.68;10.02;;;;;;;5.89;66.40;101873.72;10425306;28;20887;-65
2022/01/24 22:35:59;;;;;;;14.30;10.13;;;;;;;5.85;66.71;101869.44;10426030;28;20060;-62
2022/01/24 22:46:14;;;;;;;11.80;10.18;;;;;;;5.72;67.32;101860.22;10440238;28;20099;-64
2022/01/24 22:51:16;;;;;;;10.43;9.43;;;;;;;5.63;67.53;101864.91;10435081;28;21100;-62
2022/01/24 22:56:19;;;;;;;11.27;10.10;;;;;;;5.62;67.33;101860.53;10411601;28;20130;-62
2022/01/24 23:01:22;;;;;;;11.60;10.40;;;;;;;5.63;67.27;101856.09;10410303;28;20048;-62
2022/01/24 23:06:24;;;;;;;13.10;11.35;;;;;;;5.55;67.36;101848.44;10411129;28;20056;-63
2022/01/24 23:11:26;;;;;;;13.82;11.48;;;;;;;5.63;67.51;101846.41;10420526;28;20067;-62
2022/01/24 23:21:54;;;;;;;12.48;11.20;;;;;;;5.57;67.53;101840.47;10413768;28;20617;-64
2022/01/24 23:27:04;;;;;;;12.93;11.55;;;;;;;5.53;67.66;101841.50;10429155;28;20178;-64
2022/01/24 23:32:16;;;;;;;13.43;12.02;;;;;;;5.51;67.97;101845.97;10418020;28;20060;-64
2022/01/24 23:42:41;;;;;;;13.35;11.23;;;;;;;5.44;68.17;101845.31;10420845;28;20103;-64
2022/01/24 23:47:42;;;;;;;13.93;11.30;;;;;;;5.41;68.45;101837.50;10420919;28;20068;-64
2022/01/24 23:52:44;;;;;;;13.57;11.63;;;;;;;5.33;68.44;101858.88;10421280;28;20053;-63
2022/01/24 23:57:48;;;;;;;15.55;11.95;;;;;;;5.26;68.68;101852.94;10418218;28;20133;-63
